createdAt,value
2023-03-03T00:00:48.953Z,48.92
2023-03-03T00:03:19.189Z,46.80
2023-03-03T00:05:46.057Z,48.55
2023-03-03T00:08:12.990Z,48.83
2023-03-03T00:10:39.521Z,47.72
2023-03-03T00:13:15.114Z,48.40
2023-03-03T00:15:41.702Z,48.90
2023-03-03T00:18:36.439Z,47.65
2023-03-03T00:21:12.321Z,48.65
2023-03-03T00:23:40.717Z,47.88
2023-03-03T00:26:44.138Z,47.97
2023-03-03T00:29:30.999Z,44.90
2023-03-03T00:32:23.779Z,47.05
2023-03-03T00:34:53.112Z,46.13
2023-03-03T00:37:34.751Z,47.83
2023-03-03T00:40:35.311Z,49.40
2023-03-03T00:43:12.164Z,50.08
2023-03-03T00:45:53.651Z,51.15
2023-03-03T00:48:30.866Z,50.20
2023-03-03T00:50:59.484Z,52.33
2023-03-03T00:53:28.177Z,53.58
2023-03-03T00:55:55.261Z,53.72
2023-03-03T00:58:23.089Z,52.95
2023-03-03T01:00:51.804Z,51.05
2023-03-03T01:03:23.435Z,51.78
2023-03-03T01:05:50.395Z,55.33
2023-03-03T01:08:17.443Z,49.22
2023-03-03T01:10:54.414Z,48.45
2023-03-03T01:13:24.247Z,45.47
2023-03-03T01:15:51.788Z,46.33
2023-03-03T01:18:18.802Z,44.28
2023-03-03T01:20:45.683Z,45.33
2023-03-03T01:23:12.776Z,45.00
2023-03-03T01:25:39.557Z,41.00
2023-03-03T01:28:06.076Z,43.67
2023-03-03T01:30:32.678Z,43.53
2023-03-03T01:32:59.240Z,42.05
2023-03-03T01:35:26.033Z,41.67
2023-03-03T01:37:52.604Z,40.90
2023-03-03T01:40:22.311Z,40.38
2023-03-03T01:42:49.149Z,39.25
2023-03-03T01:45:26.438Z,38.75
2023-03-03T01:47:55.776Z,36.03
2023-03-03T01:50:36.881Z,40.47
2023-03-03T01:53:06.380Z,39.75
2023-03-03T01:55:39.924Z,40.40
2023-03-03T01:58:13.367Z,40.58
2023-03-03T02:03:09.778Z,44.70
2023-03-03T02:05:36.947Z,44.70
2023-03-03T02:08:04.152Z,45.30
2023-03-03T02:10:31.490Z,45.65
2023-03-03T02:12:59.066Z,44.08
2023-03-03T02:15:29.319Z,43.20
2023-03-03T02:18:00.590Z,44.42
2023-03-03T02:20:49.033Z,44.15
2023-03-03T02:23:21.598Z,42.03
2023-03-03T02:25:58.831Z,40.65
2023-03-03T02:28:30.550Z,42.42
2023-03-03T02:31:02.262Z,40.50
2023-03-03T02:33:29.661Z,32.55
2023-03-03T02:35:56.666Z,30.83
2023-03-03T02:38:40.090Z,27.40
2023-03-03T02:41:16.304Z,26.83
2023-03-03T02:44:12.998Z,26.45
2023-03-03T02:46:42.843Z,27.40
2023-03-03T02:49:11.059Z,24.60
2023-03-03T02:51:38.589Z,26.00
2023-03-03T02:54:05.817Z,25.52
2023-03-03T02:56:33.587Z,27.27
2023-03-03T02:59:00.426Z,26.60
2023-03-03T03:01:29.565Z,27.17
2023-03-03T03:03:56.356Z,27.50
2023-03-03T03:06:23.305Z,26.45
2023-03-03T03:08:49.998Z,26.92
2023-03-03T03:11:16.441Z,28.00
2023-03-03T03:13:43.180Z,29.25
2023-03-03T03:16:09.928Z,27.17
2023-03-03T03:18:36.444Z,27.77
2023-03-03T03:21:08.148Z,29.48
2023-03-03T03:23:35.114Z,28.00
2023-03-03T03:26:02.741Z,28.25
2023-03-03T03:28:29.892Z,29.23
2023-03-03T03:30:57.143Z,28.67
2023-03-03T03:33:24.997Z,28.50
2023-03-03T03:35:52.398Z,30.65
2023-03-03T03:38:19.274Z,30.48
2023-03-03T03:40:47.485Z,30.23
2023-03-03T03:43:13.970Z,29.55
2023-03-03T03:45:45.263Z,29.75
2023-03-03T03:48:13.677Z,28.75
2023-03-03T03:50:40.187Z,28.05
2023-03-03T03:53:07.420Z,27.25
2023-03-03T03:55:34.436Z,28.20
2023-03-03T03:58:00.953Z,28.58
2023-03-03T04:00:27.516Z,27.48
2023-03-03T04:02:58.463Z,25.90
2023-03-03T04:05:25.481Z,25.75
2023-03-03T04:07:52.117Z,27.65
2023-03-03T04:10:19.554Z,25.63
2023-03-03T04:12:46.931Z,26.38
2023-03-03T04:15:15.154Z,28.08
2023-03-03T04:17:42.853Z,27.77
2023-03-03T04:20:13.761Z,29.23
2023-03-03T04:22:40.249Z,28.65
2023-03-03T04:25:07.781Z,31.25
2023-03-03T04:27:39.139Z,26.37
2023-03-03T04:30:07.254Z,25.80
2023-03-03T04:32:33.930Z,24.50
2023-03-03T04:35:08.194Z,25.13
2023-03-03T04:37:38.867Z,25.92
2023-03-03T04:40:07.531Z,25.50
2023-03-03T04:42:35.231Z,25.52
2023-03-03T04:45:03.449Z,26.52
2023-03-03T04:47:32.265Z,26.98
2023-03-03T04:49:58.832Z,27.13
2023-03-03T04:52:25.410Z,29.02
2023-03-03T04:54:52.144Z,29.52
2023-03-03T04:57:18.770Z,28.70
2023-03-03T04:59:45.510Z,29.83
2023-03-03T05:02:13.144Z,29.80
2023-03-03T05:04:39.576Z,31.05
2023-03-03T05:07:06.217Z,32.40
2023-03-03T05:09:32.649Z,33.38
2023-03-03T05:11:59.018Z,32.30
2023-03-03T05:14:26.962Z,32.05
2023-03-03T05:16:53.677Z,32.35
2023-03-03T05:19:20.127Z,32.20
2023-03-03T05:21:46.493Z,32.55
2023-03-03T05:24:14.106Z,33.10
2023-03-03T05:26:42.190Z,31.67
2023-03-03T05:29:09.579Z,33.85
2023-03-03T05:31:36.669Z,34.03
2023-03-03T05:34:03.267Z,36.42
2023-03-03T05:36:29.684Z,38.95
2023-03-03T05:38:56.165Z,38.83
2023-03-03T05:41:22.851Z,38.83
2023-03-03T05:43:49.313Z,35.67
2023-03-03T05:46:15.737Z,35.78
2023-03-03T05:48:42.297Z,34.08
2023-03-03T05:51:08.910Z,36.90
2023-03-03T05:53:35.381Z,37.75
2023-03-03T05:56:02.167Z,37.70
2023-03-03T05:58:28.705Z,34.65
2023-03-03T06:00:55.104Z,35.25
2023-03-03T06:03:21.894Z,32.13
2023-03-03T06:05:48.749Z,30.60
2023-03-03T06:08:15.270Z,28.35
2023-03-03T06:10:41.727Z,28.60
2023-03-03T06:13:11.189Z,27.08
2023-03-03T06:15:37.999Z,27.77
2023-03-03T06:18:04.556Z,28.48
2023-03-03T06:20:31.637Z,27.23
2023-03-03T06:22:58.191Z,27.73
2023-03-03T06:25:24.576Z,28.13
2023-03-03T06:27:50.998Z,28.40
2023-03-03T06:30:18.820Z,29.90
2023-03-03T06:32:45.783Z,28.70
2023-03-03T06:35:12.321Z,29.67
2023-03-03T06:37:39.358Z,29.55
2023-03-03T06:40:06.794Z,30.73
2023-03-03T06:42:33.227Z,29.20
2023-03-03T06:44:59.690Z,29.92
2023-03-03T06:47:26.332Z,31.42
2023-03-03T06:49:53.380Z,29.92
2023-03-03T06:52:25.799Z,27.60
2023-03-03T06:54:57.880Z,27.13
2023-03-03T06:57:30.484Z,29.10
2023-03-03T07:00:17.755Z,29.00
2023-03-03T07:02:44.185Z,28.15
2023-03-03T07:05:15.111Z,28.17
2023-03-03T07:07:41.938Z,27.98
2023-03-03T07:10:28.800Z,29.67
2023-03-03T07:13:02.005Z,25.35
2023-03-03T07:15:35.122Z,25.00
2023-03-03T07:18:03.082Z,26.38
2023-03-03T07:20:36.622Z,25.77
2023-03-03T07:23:34.366Z,25.67
2023-03-03T07:26:00.796Z,25.23
2023-03-03T07:28:29.572Z,26.80
2023-03-03T07:30:57.681Z,25.90
2023-03-03T07:33:34.946Z,27.65
2023-03-03T07:36:03.592Z,28.25
2023-03-03T07:38:42.056Z,26.27
2023-03-03T07:41:25.625Z,26.42
2023-03-03T07:43:57.112Z,28.42
2023-03-03T07:46:29.193Z,29.85
2023-03-03T07:48:58.959Z,27.67
2023-03-03T07:51:28.962Z,29.13
2023-03-03T07:54:18.320Z,28.80
2023-03-03T07:56:45.726Z,28.52
2023-03-03T07:59:24.465Z,29.67
2023-03-03T08:01:58.715Z,28.98
2023-03-03T08:05:05.334Z,29.48
2023-03-03T08:07:35.517Z,28.35
2023-03-03T08:10:02.258Z,29.48
2023-03-03T08:12:39.310Z,27.23
2023-03-03T08:15:19.397Z,27.10
2023-03-03T08:17:47.069Z,30.65
2023-03-03T08:20:34.892Z,29.88
2023-03-03T08:23:01.402Z,28.95
2023-03-03T08:25:27.813Z,27.38
2023-03-03T08:27:54.610Z,28.42
2023-03-03T08:30:21.014Z,27.48
2023-03-03T08:32:47.892Z,25.77
2023-03-03T08:35:14.291Z,24.75
2023-03-03T08:37:40.669Z,22.30
2023-03-03T08:40:07.845Z,22.75
2023-03-03T08:42:34.252Z,22.60
2023-03-03T08:45:01.004Z,21.13
2023-03-03T08:47:27.391Z,22.58
2023-03-03T08:49:54.434Z,20.27
2023-03-03T08:52:21.008Z,23.30
2023-03-03T08:54:47.473Z,21.45
2023-03-03T08:57:13.943Z,20.17
2023-03-03T08:59:40.554Z,19.20
2023-03-03T09:02:07.262Z,20.13
2023-03-03T09:04:34.335Z,18.63
2023-03-03T09:07:00.779Z,18.05
2023-03-03T09:09:27.642Z,18.38
2023-03-03T09:11:58.367Z,18.27
2023-03-03T09:14:28.893Z,19.52
2023-03-03T09:16:56.738Z,19.88
2023-03-03T09:19:32.277Z,18.50
2023-03-03T09:22:16.579Z,20.80
2023-03-03T09:24:42.968Z,20.27
2023-03-03T09:27:29.369Z,20.23
2023-03-03T09:30:01.131Z,30.30
2023-03-03T09:32:35.166Z,37.75
2023-03-03T09:35:40.279Z,40.38
2023-03-03T09:38:33.795Z,38.25
2023-03-03T09:41:37.809Z,35.00
2023-03-03T09:44:17.176Z,25.05
2023-03-03T09:46:52.505Z,24.45
2023-03-03T09:49:18.879Z,23.67
2023-03-03T09:52:03.371Z,24.25
2023-03-03T09:55:01.012Z,24.23
2023-03-03T09:57:32.655Z,24.73
2023-03-03T10:00:18.708Z,26.40
2023-03-03T10:02:53.486Z,29.35
2023-03-03T10:05:42.202Z,28.83
2023-03-03T10:08:26.937Z,29.20
2023-03-03T10:11:03.276Z,27.60
2023-03-03T10:13:40.172Z,29.40
2023-03-03T10:16:32.308Z,27.35
2023-03-03T10:19:02.928Z,24.90
2023-03-03T10:21:50.570Z,25.00
2023-03-03T10:24:29.324Z,25.90
2023-03-03T10:27:22.005Z,28.92
2023-03-03T10:30:39.970Z,34.42
2023-03-03T10:33:20.715Z,38.58
2023-03-03T10:36:07.084Z,41.97
2023-03-03T10:38:55.452Z,44.58
2023-03-03T10:41:27.685Z,43.63
2023-03-03T10:44:18.307Z,42.03
2023-03-03T10:47:22.409Z,37.58
2023-03-03T10:50:15.266Z,38.58
2023-03-03T10:53:05.741Z,34.00
2023-03-03T10:55:46.607Z,28.20
2023-03-03T10:58:40.746Z,39.13
2023-03-03T11:01:22.338Z,23.92
2023-03-03T11:04:25.686Z,18.88
2023-03-03T11:07:08.781Z,18.27
2023-03-03T11:09:41.353Z,17.85
2023-03-03T11:12:17.869Z,22.97
2023-03-03T11:14:55.452Z,28.70
2023-03-03T11:17:27.884Z,25.60
2023-03-03T11:20:16.732Z,24.20
2023-03-03T11:22:53.776Z,23.65
2023-03-03T11:25:30.249Z,29.92
2023-03-03T11:28:10.799Z,25.17
2023-03-03T11:30:49.444Z,29.00
2023-03-03T11:33:23.127Z,27.20
2023-03-03T11:35:49.484Z,30.38
2023-03-03T11:38:33.291Z,30.25
2023-03-03T11:41:11.588Z,31.35
2023-03-03T11:43:49.696Z,36.33
2023-03-03T11:46:20.151Z,34.65
2023-03-03T11:49:05.276Z,37.60
2023-03-03T11:51:50.654Z,30.35
2023-03-03T11:54:28.901Z,30.10
2023-03-03T11:57:12.763Z,34.97
2023-03-03T11:59:56.008Z,33.47
2023-03-03T12:02:46.988Z,33.28
2023-03-03T12:05:31.509Z,29.38
2023-03-03T12:08:31.148Z,27.50
2023-03-03T12:11:09.732Z,29.73
2023-03-03T12:13:53.548Z,32.20
2023-03-03T12:16:50.942Z,31.55
2023-03-03T12:19:26.435Z,31.63
2023-03-03T12:22:04.904Z,31.65
2023-03-03T12:24:50.546Z,33.97
2023-03-03T12:27:33.739Z,36.05
2023-03-03T12:30:24.632Z,36.22
2023-03-03T12:33:11.027Z,33.03
2023-03-03T12:35:40.586Z,30.48
2023-03-03T12:38:51.592Z,33.72
2023-03-03T12:41:56.133Z,33.80
2023-03-03T12:44:44.154Z,34.90
2023-03-03T12:47:52.364Z,38.25
2023-03-03T12:50:31.014Z,36.53
2023-03-03T12:53:03.421Z,35.08
2023-03-03T12:55:47.491Z,35.07
2023-03-03T12:58:45.140Z,33.58
2023-03-03T13:01:20.404Z,31.45
2023-03-03T13:04:05.757Z,32.15
2023-03-03T13:06:40.269Z,30.40
2023-03-03T13:09:06.715Z,29.85
2023-03-03T13:11:53.897Z,26.10
2023-03-03T13:14:33.850Z,25.00
2023-03-03T13:17:12.208Z,19.65
2023-03-03T13:19:50.420Z,17.85
2023-03-03T13:22:31.572Z,16.70
2023-03-03T13:25:23.135Z,14.93
2023-03-03T13:27:54.399Z,14.85
2023-03-03T13:30:28.284Z,14.30
2023-03-03T13:33:16.892Z,14.32
2023-03-03T13:36:07.641Z,12.68
2023-03-03T13:38:57.815Z,13.02
2023-03-03T13:41:27.181Z,12.30
2023-03-03T13:43:59.904Z,12.85
2023-03-03T13:47:02.302Z,13.15
2023-03-03T13:49:36.104Z,13.23
2023-03-03T13:52:10.480Z,13.13
2023-03-03T13:55:04.806Z,13.25
2023-03-03T13:58:00.184Z,12.73
2023-03-03T14:00:35.947Z,13.13
2023-03-03T14:03:15.023Z,12.55
2023-03-03T14:06:04.569Z,13.60
2023-03-03T14:08:49.937Z,12.80
2023-03-03T14:11:26.439Z,14.38
2023-03-03T14:14:27.090Z,12.85
2023-03-03T14:17:06.046Z,13.80
2023-03-03T14:19:36.957Z,13.15
2023-03-03T14:22:16.381Z,14.23
2023-03-03T14:25:06.230Z,13.82
2023-03-03T14:27:40.681Z,11.93
2023-03-03T14:30:22.436Z,13.18
2023-03-03T14:33:07.249Z,11.75
2023-03-03T14:35:41.235Z,11.25
2023-03-03T14:38:13.785Z,12.13
2023-03-03T14:40:45.506Z,13.30
2023-03-03T14:43:36.508Z,11.63
2023-03-03T14:46:37.313Z,12.77
2023-03-03T14:49:25.983Z,12.48
2023-03-03T14:51:52.500Z,12.80
2023-03-03T14:54:34.670Z,12.35
2023-03-03T14:57:46.096Z,11.93
2023-03-03T15:00:12.920Z,12.18
2023-03-03T15:03:16.359Z,12.55
2023-03-03T15:05:57.947Z,12.30
2023-03-03T15:08:34.356Z,12.63
2023-03-03T15:11:28.223Z,10.63
2023-03-03T15:14:10.052Z,12.27
2023-03-03T15:16:36.556Z,11.75
2023-03-03T15:19:44.728Z,11.65
2023-03-03T15:22:36.544Z,12.43
2023-03-03T15:25:18.765Z,11.10
2023-03-03T15:28:22.542Z,11.45
2023-03-03T15:30:58.949Z,13.82
2023-03-03T15:33:40.823Z,12.65
2023-03-03T15:36:15.474Z,12.02
2023-03-03T15:38:54.558Z,11.48
2023-03-03T15:41:42.588Z,12.65
2023-03-03T15:44:35.023Z,13.07
2023-03-03T15:47:28.570Z,12.45
2023-03-03T15:50:06.608Z,12.18
2023-03-03T15:52:36.098Z,12.98
2023-03-03T15:55:29.372Z,12.68
2023-03-03T15:58:13.611Z,13.32
2023-03-03T16:01:10.668Z,12.73
2023-03-03T16:03:46.327Z,11.75
2023-03-03T16:06:22.171Z,12.05
2023-03-03T16:09:02.942Z,11.63
2023-03-03T16:11:47.061Z,12.10
2023-03-03T16:14:25.423Z,11.70
2023-03-03T16:17:03.289Z,12.93
2023-03-03T16:19:45.133Z,13.95
2023-03-03T16:22:41.975Z,12.88
2023-03-03T16:25:32.090Z,14.00
2023-03-03T16:28:05.803Z,13.88
2023-03-03T16:30:34.874Z,15.25
2023-03-03T16:33:13.563Z,16.45
2023-03-03T16:35:50.514Z,16.30
2023-03-03T16:38:24.273Z,14.57
2023-03-03T16:41:01.610Z,13.70
2023-03-03T16:43:27.921Z,13.77
2023-03-03T16:46:02.707Z,13.43
2023-03-03T16:51:25.971Z,12.43
2023-03-03T16:54:16.224Z,15.00
2023-03-03T16:56:48.985Z,14.43
2023-03-03T16:59:36.428Z,14.32
2023-03-03T17:02:21.675Z,13.98
2023-03-03T17:05:00.582Z,14.82
2023-03-03T17:08:13.462Z,13.95
2023-03-03T17:10:50.899Z,15.48
2023-03-03T17:13:32.347Z,14.57
2023-03-03T17:16:51.469Z,14.85
2023-03-03T17:19:41.518Z,15.18
2023-03-03T17:22:46.268Z,15.95
2023-03-03T17:25:21.333Z,18.35
2023-03-03T17:28:13.572Z,19.10
2023-03-03T17:30:59.544Z,17.15
2023-03-03T17:33:37.977Z,17.08
2023-03-03T17:36:18.304Z,16.45
2023-03-03T17:39:18.215Z,16.42
2023-03-03T17:42:04.166Z,16.15
2023-03-03T17:45:02.426Z,17.17
2023-03-03T17:48:03.729Z,15.85
2023-03-03T17:50:36.029Z,16.90
2023-03-03T17:53:26.685Z,17.10
2023-03-03T17:56:17.871Z,18.85
2023-03-03T17:59:05.920Z,18.00
2023-03-03T18:02:02.552Z,17.48
2023-03-03T18:05:00.941Z,17.70
2023-03-03T18:07:43.597Z,17.77
2023-03-03T18:10:32.798Z,18.10
2023-03-03T18:13:07.333Z,18.42
2023-03-03T18:15:36.649Z,19.95
2023-03-03T18:18:41.184Z,19.17
2023-03-03T18:21:20.901Z,19.33
2023-03-03T18:23:48.967Z,19.90
2023-03-03T18:26:41.249Z,20.48
2023-03-03T18:29:21.235Z,22.38
2023-03-03T18:31:54.254Z,23.00
2023-03-03T18:34:20.619Z,21.35
2023-03-03T18:37:08.909Z,21.08
2023-03-03T18:39:41.626Z,20.85
2023-03-03T18:42:12.365Z,19.42
2023-03-03T18:44:39.232Z,18.48
2023-03-03T18:47:05.643Z,17.65
2023-03-03T18:50:05.333Z,17.95
2023-03-03T18:52:35.177Z,18.17
2023-03-03T18:55:10.633Z,19.58
2023-03-03T18:57:38.180Z,18.52
2023-03-03T19:00:42.984Z,18.70
2023-03-03T19:03:28.473Z,17.67
2023-03-03T19:05:57.812Z,18.73
2023-03-03T19:08:44.606Z,16.45
2023-03-03T19:11:36.552Z,16.58
2023-03-03T19:14:18.532Z,14.95
2023-03-03T19:16:45.497Z,13.82
2023-03-03T19:19:14.718Z,13.93
2023-03-03T19:21:42.823Z,14.02
2023-03-03T19:24:27.262Z,13.98
2023-03-03T19:27:11.608Z,15.32
2023-03-03T19:29:44.176Z,15.30
2023-03-03T19:32:26.209Z,16.60
2023-03-03T19:35:15.423Z,13.85
2023-03-03T19:37:55.539Z,13.50
2023-03-03T19:40:58.215Z,14.13
2023-03-03T19:43:35.574Z,12.85
2023-03-03T19:46:28.906Z,12.40
2023-03-03T19:49:24.199Z,12.68
2023-03-03T19:52:05.193Z,11.00
2023-03-03T19:54:46.874Z,10.75
2023-03-03T19:57:28.618Z,10.82
2023-03-03T20:00:05.443Z,11.38
2023-03-03T20:03:21.186Z,11.63
2023-03-03T20:06:20.411Z,11.15
2023-03-03T20:09:09.746Z,10.95
2023-03-03T20:11:48.347Z,11.15
2023-03-03T20:14:39.226Z,10.63
2023-03-03T20:17:44.385Z,10.93
2023-03-03T20:20:36.076Z,9.68
2023-03-03T20:23:29.613Z,9.07
2023-03-03T20:26:43.633Z,9.10
2023-03-03T20:29:36.418Z,9.15
2023-03-03T20:32:14.964Z,9.70
2023-03-03T20:35:09.697Z,9.75
2023-03-03T20:37:58.984Z,8.57
2023-03-03T20:40:38.909Z,8.57
2023-03-03T20:43:31.026Z,7.28
2023-03-03T20:46:16.476Z,6.40
2023-03-03T20:49:01.524Z,6.43
2023-03-03T20:51:46.969Z,5.78
2023-03-03T20:54:24.409Z,6.05
2023-03-03T20:57:21.813Z,5.93
2023-03-03T21:00:00.439Z,4.90
2023-03-03T21:02:40.106Z,4.82
2023-03-03T21:05:18.698Z,4.93
2023-03-03T21:07:57.519Z,5.15
2023-03-03T21:10:27.491Z,4.75
2023-03-03T21:12:58.521Z,5.00
2023-03-03T21:15:31.053Z,5.05
2023-03-03T21:17:58.795Z,4.97
2023-03-03T21:20:32.484Z,5.15
2023-03-03T21:25:41.091Z,6.68
2023-03-03T21:28:29.787Z,6.88
2023-03-03T21:31:04.064Z,7.00
2023-03-03T21:33:42.507Z,7.57
2023-03-03T21:36:11.023Z,7.57
2023-03-03T21:38:38.896Z,7.43
2023-03-03T21:41:06.562Z,7.55
2023-03-03T21:43:38.300Z,8.30
2023-03-03T21:46:05.238Z,7.63
2023-03-03T21:48:32.178Z,6.63
2023-03-03T21:50:58.549Z,7.00
2023-03-03T21:53:26.596Z,6.88
2023-03-03T21:55:53.671Z,5.43
2023-03-03T21:58:20.268Z,4.20
2023-03-03T22:00:46.939Z,4.10
2023-03-03T22:03:15.182Z,3.17
2023-03-03T22:05:41.744Z,3.17
2023-03-03T22:08:08.132Z,3.30
2023-03-03T22:10:34.529Z,3.35
2023-03-03T22:13:01.587Z,3.30
2023-03-03T22:15:30.398Z,3.17
2023-03-03T22:17:57.080Z,3.65
2023-03-03T22:20:23.494Z,3.20
2023-03-03T22:22:49.899Z,3.45
2023-03-03T22:25:16.451Z,3.47
2023-03-03T22:27:42.854Z,3.92
2023-03-03T22:30:10.089Z,3.53
2023-03-03T22:32:36.471Z,3.40
2023-03-03T22:35:02.947Z,3.42
2023-03-03T22:37:29.317Z,3.50
2023-03-03T22:39:56.092Z,2.90
2023-03-03T22:42:23.366Z,3.50
2023-03-03T22:44:49.774Z,3.50
2023-03-03T22:47:16.410Z,3.40
2023-03-03T22:49:42.833Z,3.47
2023-03-03T22:52:09.223Z,3.20
2023-03-03T22:54:35.604Z,3.45
2023-03-03T22:57:01.965Z,3.60
2023-03-03T22:59:28.518Z,3.60
2023-03-03T23:01:56.018Z,3.80
2023-03-03T23:04:22.490Z,3.65
2023-03-03T23:06:49.937Z,3.38
2023-03-03T23:09:16.306Z,4.10
2023-03-03T23:11:42.692Z,3.63
2023-03-03T23:14:09.156Z,4.05
2023-03-03T23:16:35.549Z,3.70
2023-03-03T23:19:02.026Z,3.40
2023-03-03T23:21:28.495Z,3.90
2023-03-03T23:23:54.924Z,3.58
2023-03-03T23:26:21.514Z,3.50
2023-03-03T23:28:47.998Z,3.55
2023-03-03T23:31:14.545Z,3.67
2023-03-03T23:33:40.946Z,3.58
2023-03-03T23:36:07.640Z,3.42
2023-03-03T23:38:34.058Z,3.78
2023-03-03T23:41:00.427Z,3.88
2023-03-03T23:43:26.815Z,3.28
2023-03-03T23:45:53.256Z,3.72
2023-03-03T23:48:20.628Z,3.80
2023-03-03T23:50:48.210Z,3.97
2023-03-03T23:53:14.620Z,3.55
2023-03-03T23:55:41.468Z,3.45
2023-03-03T23:58:07.925Z,4.43
